Time;durP1;ratioP1;P1;durP2;ratioP2;P2;SDS_P1;SDS_P2;PMS_P1;PMS_P2;Temp;Humidity;BMP_temperature;BMP_pressure;BME280_temperature;BME280_humidity;BME280_pressure;Samples;Min_cycle;Max_cycle;Signal;HPM_P1;HPM_P2
2022/09/04 00:02:26;;;;;;;;;;;17.70;99.90;;;;;;5013693;28;21625;-80
2022/09/04 00:05:18;;;;;;;;;;;17.60;99.90;;;;;;5011205;28;19982;-80
2022/09/04 00:07:56;;;;;;;;;;;17.60;99.90;;;;;;4981081;28;19913;-80
2022/09/04 00:10:33;;;;;;;;;;;17.60;99.90;;;;;;5012226;28;20293;-79
2022/09/04 00:13:01;;;;;;;;;;;17.60;99.90;;;;;;5012645;28;19913;-80
2022/09/04 00:15:34;;;;;;;;;;;17.50;99.90;;;;;;5010791;28;20285;-80
2022/09/04 00:18:16;;;;;;;;;;;17.50;99.90;;;;;;5013619;28;19913;-79
2022/09/04 00:20:44;;;;;;;;;;;17.50;99.90;;;;;;5009449;28;19913;-79
2022/09/04 00:23:24;;;;;;;;;;;17.50;99.90;;;;;;5016766;28;20003;-80
2022/09/04 00:25:56;;;;;;;;;;;17.50;99.90;;;;;;4984505;28;19921;-79
2022/09/04 00:28:22;;;;;;;;;;;17.50;99.90;;;;;;5010383;28;19916;-80
2022/09/04 00:30:54;;;;;;;;;;;17.50;99.90;;;;;;5017228;28;20016;-80
2022/09/04 00:33:30;;;;;;;;;;;17.50;99.90;;;;;;5020914;28;19939;-78
2022/09/04 00:36:01;;;;;;;;;;;17.40;99.90;;;;;;5019017;28;19976;-79
2022/09/04 00:38:39;;;;;;;;;;;17.40;99.90;;;;;;5027442;28;19968;-80
2022/09/04 00:41:29;;;;;;;;;;;17.40;99.90;;;;;;5016144;28;19920;-80
2022/09/04 00:43:59;;;;;;;;;;;17.40;99.90;;;;;;5001050;28;19924;-79
2022/09/04 00:46:30;;;;;;;;;;;17.30;99.90;;;;;;5016154;28;19916;-80
2022/09/04 00:49:11;;;;;;;;;;;17.30;99.90;;;;;;5010990;28;19913;-79
2022/09/04 00:51:43;;;;;;;;;;;17.30;99.90;;;;;;5004846;28;19913;-79
2022/09/04 00:54:16;;;;;;;;;;;17.30;99.90;;;;;;5020013;28;19920;-78
2022/09/04 00:56:52;;;;;;;;;;;17.30;99.90;;;;;;5009715;28;20280;-79
2022/09/04 00:59:36;;;;;;;;;;;17.30;99.90;;;;;;5018004;28;19901;-78
2022/09/04 01:02:09;;;;;;;;;;;17.20;99.90;;;;;;5039743;28;19909;-79
2022/09/04 01:04:55;;;;;;;;;;;17.20;99.90;;;;;;5031135;28;19913;-80
2022/09/04 01:07:39;;;;;;;;;;;17.20;99.90;;;;;;5012289;28;19928;-78
2022/09/04 01:10:27;;;;;;;;;;;17.20;99.90;;;;;;5047980;28;19916;-78
2022/09/04 01:13:07;;;;;;;;;;;17.10;99.90;;;;;;5013209;28;19944;-80
2022/09/04 01:15:38;;;;;;;;;;;17.10;99.90;;;;;;5005572;28;19967;-80
2022/09/04 01:18:16;;;;;;;;;;;17.10;99.90;;;;;;5008661;28;19917;-79
2022/09/04 01:20:52;;;;;;;;;;;17.10;99.90;;;;;;5026149;28;19952;-77
2022/09/04 01:23:18;;;;;;;;;;;17.10;99.90;;;;;;5047733;28;19893;-80
2022/09/04 01:25:50;;;;;;;;;;;17.10;99.90;;;;;;5033247;28;19924;-80
2022/09/04 01:28:35;;;;;;;;;;;17.10;99.90;;;;;;5008234;28;19916;-80
2022/09/04 01:31:07;;;;;;;;;;;17.00;99.90;;;;;;5030141;28;20003;-80
2022/09/04 01:33:53;;;;;;;;;;;17.10;99.90;;;;;;5016583;28;19919;-79
2022/09/04 01:36:27;;;;;;;;;;;17.00;99.90;;;;;;5017682;28;19909;-80
2022/09/04 01:38:55;;;;;;;;;;;17.00;99.90;;;;;;5022266;28;19919;-80
2022/09/04 01:41:35;;;;;;;;;;;17.00;99.90;;;;;;5015921;28;19936;-78
2022/09/04 01:44:05;;;;;;;;;;;17.00;99.90;;;;;;5004880;28;19967;-80
2022/09/04 01:46:50;;;;;;;;;;;16.90;99.90;;;;;;5008181;28;19905;-80
2022/09/04 01:49:27;;;;;;;;;;;16.90;99.90;;;;;;5014961;28;19913;-78
2022/09/04 01:51:59;;;;;;;;;;;16.90;99.90;;;;;;5010779;28;19920;-80
2022/09/04 01:54:44;;;;;;;;;;;16.80;99.90;;;;;;5010238;28;19960;-79
2022/09/04 01:57:19;;;;;;;;;;;16.80;99.90;;;;;;5007244;28;19917;-79
2022/09/04 01:59:51;;;;;;;;;;;16.80;99.90;;;;;;5024232;28;19916;-80
2022/09/04 02:02:24;;;;;;;;;;;16.70;99.90;;;;;;5015222;28;19916;-79
2022/09/04 02:05:08;;;;;;;;;;;16.70;99.90;;;;;;5024037;28;20191;-80
2022/09/04 02:07:38;;;;;;;;;;;16.70;99.90;;;;;;5011584;28;19995;-79
2022/09/04 02:10:17;;;;;;;;;;;16.70;99.90;;;;;;5001094;28;19913;-80
2022/09/04 02:13:11;;;;;;;;;;;16.60;99.90;;;;;;5004621;28;19966;-79
2022/09/04 02:18:13;;;;;;;;;;;16.60;99.90;;;;;;5010181;28;20013;-84
2022/09/04 02:20:45;;;;;;;;;;;16.60;99.90;;;;;;5011991;28;19920;-81
2022/09/04 02:23:11;;;;;;;;;;;16.50;99.90;;;;;;4998220;28;19909;-82
2022/09/04 02:25:36;;;;;;;;;;;;;;;;;;5011832;28;19920;-81
2022/09/04 02:28:21;;;;;;;;;;;16.50;99.90;;;;;;4994612;28;20391;-83
2022/09/04 02:30:54;;;;;;;;;;;16.50;99.90;;;;;;5008890;28;19913;-84
2022/09/04 02:33:34;;;;;;;;;;;16.50;99.90;;;;;;4988410;28;19932;-80
2022/09/04 02:36:12;;;;;;;;;;;16.50;99.90;;;;;;5013113;28;19920;-80
2022/09/04 02:38:45;;;;;;;;;;;16.50;99.90;;;;;;4995101;28;20012;-84
2022/09/04 02:41:16;;;;;;;;;;;16.50;99.90;;;;;;5010010;28;19955;-81
2022/09/04 02:44:11;;;;;;;;;;;16.50;99.90;;;;;;5006924;28;19914;-79
2022/09/04 02:46:48;;;;;;;;;;;16.50;99.90;;;;;;4974094;28;19913;-83
2022/09/04 02:49:26;;;;;;;;;;;16.40;99.90;;;;;;4987749;28;20342;-81
2022/09/04 02:52:10;;;;;;;;;;;16.50;99.90;;;;;;4998115;28;19913;-81
2022/09/04 02:54:57;;;;;;;;;;;16.40;99.90;;;;;;5001811;28;20409;-82
2022/09/04 02:57:23;;;;;;;;;;;16.40;99.90;;;;;;4995386;28;20275;-82
2022/09/04 03:00:16;;;;;;;;;;;16.40;99.90;;;;;;4987276;28;19960;-82
2022/09/04 03:02:54;;;;;;;;;;;16.40;99.90;;;;;;5008115;28;19909;-84
2022/09/04 03:05:21;;;;;;;;;;;16.50;99.90;;;;;;5002982;28;20044;-81
2022/09/04 03:07:55;;;;;;;;;;;16.50;99.90;;;;;;4998758;28;20502;-82
2022/09/04 03:10:30;;;;;;;;;;;16.50;99.90;;;;;;4997786;28;20006;-81
2022/09/04 03:12:56;;;;;;;;;;;16.50;99.90;;;;;;4994346;28;19909;-82
2022/09/04 03:15:28;;;;;;;;;;;16.50;99.90;;;;;;5013671;28;19917;-84
2022/09/04 03:17:57;;;;;;;;;;;16.50;99.90;;;;;;5002309;28;20568;-80
2022/09/04 03:20:25;;;;;;;;;;;16.50;99.90;;;;;;5009247;28;19948;-82
2022/09/04 03:23:00;;;;;;;;;;;16.50;99.90;;;;;;4991626;28;19967;-83
2022/09/04 03:25:34;;;;;;;;;;;16.60;99.90;;;;;;4995310;28;19999;-80
2022/09/04 03:28:00;;;;;;;;;;;16.60;99.90;;;;;;4990969;28;20406;-80
2022/09/04 03:30:27;;;;;;;;;;;16.60;99.90;;;;;;5005489;28;19944;-82
2022/09/04 03:33:06;;;;;;;;;;;16.70;99.90;;;;;;4994299;28;19909;-81
2022/09/04 03:35:36;;;;;;;;;;;16.70;99.90;;;;;;5010955;28;20053;-83
2022/09/04 03:38:17;;;;;;;;;;;16.70;99.90;;;;;;4993628;28;20374;-82
2022/09/04 03:41:04;;;;;;;;;;;16.70;99.90;;;;;;5003294;28;19924;-83
2022/09/04 03:43:30;;;;;;;;;;;16.70;99.90;;;;;;5008219;28;20351;-81
2022/09/04 03:46:07;;;;;;;;;;;16.70;99.90;;;;;;5011111;28;19920;-82
2022/09/04 03:48:51;;;;;;;;;;;16.70;99.90;;;;;;4995361;28;19914;-83
2022/09/04 03:51:16;;;;;;;;;;;16.70;99.90;;;;;;5006291;28;19916;-81
2022/09/04 03:53:50;;;;;;;;;;;16.70;99.90;;;;;;4993027;28;20015;-79
2022/09/04 03:56:24;;;;;;;;;;;16.70;99.90;;;;;;5012438;28;20279;-79
2022/09/04 03:58:50;;;;;;;;;;;16.70;99.90;;;;;;5012634;28;19910;-80
2022/09/04 04:01:22;;;;;;;;;;;16.70;99.90;;;;;;4996018;28;19916;-79
2022/09/04 04:03:53;;;;;;;;;;;16.70;99.90;;;;;;5020251;28;19931;-84
2022/09/04 04:06:24;;;;;;;;;;;16.80;99.90;;;;;;5014507;28;19941;-81
2022/09/04 04:09:10;;;;;;;;;;;16.70;99.90;;;;;;5012856;28;19925;-81
2022/09/04 04:11:36;;;;;;;;;;;16.80;99.90;;;;;;5017175;28;19909;-81
2022/09/04 04:14:10;;;;;;;;;;;16.80;99.90;;;;;;5015551;28;19924;-82
2022/09/04 04:16:39;;;;;;;;;;;16.80;99.90;;;;;;4999919;28;20449;-81
2022/09/04 04:19:09;;;;;;;;;;;16.70;99.90;;;;;;5006974;28;19916;-81
2022/09/04 04:21:38;;;;;;;;;;;16.70;99.90;;;;;;5006593;28;19933;-81
2022/09/04 04:24:27;;;;;;;;;;;16.80;99.90;;;;;;4991393;28;20034;-81
2022/09/04 04:27:02;;;;;;;;;;;16.70;99.90;;;;;;5009877;28;19916;-83
2022/09/04 04:29:36;;;;;;;;;;;16.70;99.90;;;;;;5014337;28;20174;-84
2022/09/04 04:32:13;;;;;;;;;;;16.60;99.90;;;;;;5011936;28;19941;-83
2022/09/04 04:34:38;;;;;;;;;;;16.50;99.90;;;;;;5007354;28;19920;-82
2022/09/04 04:37:09;;;;;;;;;;;16.50;99.90;;;;;;5008220;28;19910;-83
2022/09/04 04:39:35;;;;;;;;;;;16.40;99.90;;;;;;4989754;28;19917;-82
2022/09/04 04:42:07;;;;;;;;;;;16.40;99.90;;;;;;5006418;28;19916;-83
2022/09/04 04:47:47;;;;;;;;;;;16.40;99.90;;;;;;5000925;28;20055;-85
2022/09/04 04:50:18;;;;;;;;;;;16.40;99.90;;;;;;5004525;28;19913;-83
2022/09/04 04:52:50;;;;;;;;;;;16.30;99.90;;;;;;5003584;28;19914;-80
2022/09/04 04:55:34;;;;;;;;;;;17.60;99.90;;;;;;4997900;28;19920;-80
2022/09/04 04:57:59;;;;;;;;;;;16.30;99.90;;;;;;5011535;28;19956;-81
2022/09/04 05:00:40;;;;;;;;;;;16.30;99.90;;;;;;4992284;28;20042;-80
2022/09/04 05:03:06;;;;;;;;;;;16.40;99.90;;;;;;5007766;28;20047;-80
2022/09/04 05:05:45;;;;;;;;;;;16.40;99.90;;;;;;5012327;28;19944;-83
2022/09/04 05:08:19;;;;;;;;;;;16.40;99.90;;;;;;5011481;28;19975;-83
2022/09/04 05:10:47;;;;;;;;;;;16.40;99.90;;;;;;4986811;28;19909;-80
2022/09/04 05:13:19;;;;;;;;;;;16.40;99.90;;;;;;4996028;28;19910;-85
2022/09/04 05:15:59;;;;;;;;;;;16.40;99.90;;;;;;4996854;28;20130;-80
2022/09/04 05:18:30;;;;;;;;;;;16.30;99.90;;;;;;5009436;28;20654;-83
2022/09/04 05:20:55;;;;;;;;;;;16.40;99.90;;;;;;5004492;28;19956;-81
2022/09/04 05:23:26;;;;;;;;;;;16.40;99.90;;;;;;5013132;28;19913;-83
2022/09/04 05:25:55;;;;;;;;;;;16.50;99.90;;;;;;5015041;28;20438;-81
2022/09/04 05:28:39;;;;;;;;;;;16.50;99.90;;;;;;4997402;28;20389;-81
2022/09/04 05:31:12;;;;;;;;;;;16.40;99.90;;;;;;4993446;28;19917;-85
2022/09/04 05:33:40;;;;;;;;;;;16.30;99.90;;;;;;4992835;28;19924;-84
2022/09/04 05:36:20;;;;;;;;;;;16.30;99.90;;;;;;4996358;28;19909;-83
2022/09/04 05:38:54;;;;;;;;;;;;;;;;;;5005181;28;19921;-86
2022/09/04 05:41:35;;;;;;;;;;;16.40;99.90;;;;;;5009662;28;20008;-83
2022/09/04 05:44:07;;;;;;;;;;;16.40;99.90;;;;;;4993000;28;19910;-85
2022/09/04 05:46:41;;;;;;;;;;;16.40;99.90;;;;;;4996296;28;20043;-83
2022/09/04 05:49:23;;;;;;;;;;;16.40;99.90;;;;;;4993606;28;19997;-83
2022/09/04 05:51:58;;;;;;;;;;;16.40;99.90;;;;;;5012363;28;19909;-81
2022/09/04 05:54:43;;;;;;;;;;;16.40;99.90;;;;;;5011256;28;19929;-82
2022/09/04 05:57:15;;;;;;;;;;;16.40;99.90;;;;;;4995034;28;19924;-82
2022/09/04 05:59:54;;;;;;;;;;;16.40;99.90;;;;;;5008880;28;19972;-84
2022/09/04 06:02:29;;;;;;;;;;;16.40;99.90;;;;;;4989852;28;19920;-86
2022/09/04 06:05:01;;;;;;;;;;;16.50;99.90;;;;;;4995897;28;19972;-82
2022/09/04 06:07:39;;;;;;;;;;;16.40;99.90;;;;;;4995563;28;19914;-86
2022/09/04 06:10:26;;;;;;;;;;;16.50;99.90;;;;;;4988780;28;19987;-82
2022/09/04 06:13:12;;;;;;;;;;;16.60;99.90;;;;;;4991697;28;19957;-84
2022/09/04 06:15:38;;;;;;;;;;;;;;;;;;5000561;28;19921;-82
2022/09/04 06:18:03;;;;;;;;;;;16.60;99.90;;;;;;4990801;28;20544;-83
2022/09/04 06:20:47;;;;;;;;;;;16.60;99.90;;;;;;4999823;28;20287;-83
2022/09/04 06:23:13;;;;;;;;;;;16.60;99.90;;;;;;5003959;28;19913;-83
2022/09/04 06:25:47;;;;;;;;;;;16.60;99.90;;;;;;5004460;28;19917;-84
2022/09/04 06:28:22;;;;;;;;;;;16.60;99.90;;;;;;5005777;28;20011;-84
2022/09/04 06:30:52;;;;;;;;;;;16.60;99.90;;;;;;5004850;28;19910;-82
2022/09/04 06:33:28;;;;;;;;;;;16.70;99.90;;;;;;4990114;28;19913;-81
2022/09/04 06:35:56;;;;;;;;;;;16.70;99.90;;;;;;4988111;28;19922;-83
2022/09/04 06:38:31;;;;;;;;;;;16.70;99.90;;;;;;4996279;28;19913;-85
2022/09/04 06:41:04;;;;;;;;;;;16.80;99.90;;;;;;4993241;28;20280;-79
2022/09/04 06:43:32;;;;;;;;;;;16.90;99.90;;;;;;5008156;28;19913;-84
2022/09/04 06:46:01;;;;;;;;;;;16.70;99.90;;;;;;5014802;28;19917;-81
2022/09/04 06:48:33;;;;;;;;;;;16.70;99.90;;;;;;4997619;28;19920;-84
2022/09/04 06:51:25;;;;;;;;;;;16.70;99.90;;;;;;5002586;28;19917;-81
2022/09/04 06:54:03;;;;;;;;;;;17.00;99.90;;;;;;4990710;28;19917;-83
2022/09/04 06:56:49;;;;;;;;;;;17.10;99.90;;;;;;4990952;28;19910;-80
2022/09/04 06:59:33;;;;;;;;;;;17.20;99.90;;;;;;4989324;28;19914;-81
2022/09/04 07:02:05;;;;;;;;;;;17.20;99.90;;;;;;4996572;28;19982;-80
2022/09/04 07:04:31;;;;;;;;;;;17.30;99.90;;;;;;5009706;28;19909;-81
2022/09/04 07:07:02;;;;;;;;;;;17.30;99.90;;;;;;4991153;28;19938;-85
2022/09/04 07:09:31;;;;;;;;;;;17.40;99.90;;;;;;4989151;28;19917;-83
2022/09/04 07:12:12;;;;;;;;;;;17.30;99.90;;;;;;5009603;28;19917;-82
2022/09/04 07:14:40;;;;;;;;;;;17.40;99.90;;;;;;4995276;28;20437;-81
2022/09/04 07:17:25;;;;;;;;;;;17.30;99.90;;;;;;4995456;28;19913;-80
2022/09/04 07:20:00;;;;;;;;;;;17.40;99.90;;;;;;4991177;28;19964;-80
2022/09/04 07:22:44;;;;;;;;;;;17.40;99.90;;;;;;5009713;28;19917;-85
2022/09/04 07:25:16;;;;;;;;;;;17.30;99.90;;;;;;5010113;28;19915;-84
2022/09/04 07:27:51;;;;;;;;;;;17.60;99.90;;;;;;4989235;28;19910;-84
2022/09/04 07:30:18;;;;;;;;;;;17.60;99.90;;;;;;4991438;28;20326;-82
2022/09/04 07:32:47;;;;;;;;;;;17.70;99.90;;;;;;5008314;28;19909;-85
2022/09/04 07:35:19;;;;;;;;;;;17.70;99.90;;;;;;5007097;28;19917;-81
2022/09/04 07:37:45;;;;;;;;;;;17.70;99.90;;;;;;5012031;28;20469;-80
2022/09/04 07:40:15;;;;;;;;;;;17.70;99.90;;;;;;4990637;28;19952;-82
2022/09/04 07:42:54;;;;;;;;;;;18.00;99.90;;;;;;5005963;28;19959;-83
2022/09/04 07:45:21;;;;;;;;;;;18.10;99.90;;;;;;4994876;28;20211;-84
2022/09/04 07:48:06;;;;;;;;;;;18.20;99.90;;;;;;5006031;28;19931;-84
2022/09/04 07:50:39;;;;;;;;;;;18.20;99.90;;;;;;4995443;28;20043;-83
2022/09/04 07:53:30;;;;;;;;;;;18.20;99.90;;;;;;5011579;28;19915;-84
2022/09/04 07:56:01;;;;;;;;;;;18.30;99.90;;;;;;5009267;28;19972;-82
2022/09/04 07:58:53;;;;;;;;;;;18.30;99.90;;;;;;4995431;28;20127;-83
2022/09/04 08:01:40;;;;;;;;;;;18.60;99.90;;;;;;4970057;28;20233;-80
2022/09/04 08:04:45;;;;;;;;;;;18.80;99.90;;;;;;5017235;28;19918;-83
2022/09/04 08:07:28;;;;;;;;;;;19.10;99.90;;;;;;5019146;28;19913;-84
2022/09/04 08:10:26;;;;;;;;;;;19.30;99.90;;;;;;5010415;28;19914;-84
2022/09/04 08:12:55;;;;;;;;;;;19.50;99.90;;;;;;4935696;29;19910;-86
2022/09/04 08:15:48;;;;;;;;;;;19.60;99.90;;;;;;5010366;28;19940;-83
2022/09/04 08:18:34;;;;;;;;;;;19.90;99.90;;;;;;4993158;28;19932;-86
2022/09/04 08:24:23;;;;;;;;;;;20.20;99.90;;;;;;4955290;28;19918;-81
2022/09/04 08:26:58;;;;;;;;;;;20.20;99.90;;;;;;4945633;28;19906;-82
2022/09/04 08:29:27;;;;;;;;;;;20.30;99.90;;;;;;4985330;28;19913;-82
2022/09/04 08:32:11;;;;;;;;;;;20.40;99.90;;;;;;5024466;28;19912;-83
2022/09/04 08:34:41;;;;;;;;;;;20.60;99.90;;;;;;4997894;28;20286;-79
2022/09/04 08:37:23;;;;;;;;;;;20.70;99.90;;;;;;5004203;28;19909;-83
2022/09/04 08:40:08;;;;;;;;;;;20.70;99.90;;;;;;5015446;28;19917;-84
2022/09/04 08:42:52;;;;;;;;;;;20.90;99.90;;;;;;5000643;28;19913;-80
2022/09/04 08:45:31;;;;;;;;;;;20.80;99.90;;;;;;4998409;28;19959;-82
2022/09/04 08:47:57;;;;;;;;;;;20.90;99.90;;;;;;5015570;28;19905;-78
2022/09/04 08:50:22;;;;;;;;;;;21.10;99.90;;;;;;5014485;28;19913;-80
2022/09/04 08:53:03;;;;;;;;;;;21.30;99.90;;;;;;5001217;28;20001;-79
2022/09/04 08:55:34;;;;;;;;;;;21.30;99.90;;;;;;5001918;28;19948;-79
2022/09/04 08:58:26;;;;;;;;;;;21.40;99.90;;;;;;5002292;28;19943;-82
2022/09/04 09:01:08;;;;;;;;;;;21.70;99.90;;;;;;4985130;28;19988;-81
2022/09/04 09:03:53;;;;;;;;;;;21.80;99.90;;;;;;4997529;28;19917;-81
2022/09/04 09:06:33;;;;;;;;;;;22.00;99.90;;;;;;4997925;28;19913;-82
2022/09/04 09:08:58;;;;;;;;;;;22.10;99.90;;;;;;4996889;28;19949;-81
2022/09/04 09:11:48;;;;;;;;;;;22.10;99.90;;;;;;5020771;28;19909;-82
2022/09/04 09:14:27;;;;;;;;;;;22.30;99.90;;;;;;4973490;28;20001;-84
2022/09/04 09:17:12;;;;;;;;;;;22.60;99.90;;;;;;5017379;28;19910;-82
2022/09/04 09:19:38;;;;;;;;;;;22.80;99.90;;;;;;5006056;28;20081;-82
2022/09/04 09:22:04;;;;;;;;;;;22.90;99.90;;;;;;5002222;28;20407;-81
2022/09/04 09:24:32;;;;;;;;;;;22.90;99.90;;;;;;5001737;28;19920;-81
2022/09/04 09:27:10;;;;;;;;;;;23.10;99.90;;;;;;5004160;28;19921;-81
2022/09/04 09:29:54;;;;;;;;;;;23.30;99.90;;;;;;5006066;28;19940;-82
2022/09/04 09:32:37;;;;;;;;;;;23.30;99.90;;;;;;5019013;28;20016;-82
2022/09/04 09:35:02;;;;;;;;;;;23.50;99.90;;;;;;5021416;28;19945;-82
2022/09/04 09:37:28;;;;;;;;;;;23.60;99.90;;;;;;5021116;28;20334;-82
2022/09/04 09:40:12;;;;;;;;;;;23.70;99.90;;;;;;5013006;28;19913;-82
2022/09/04 09:42:57;;;;;;;;;;;23.90;99.90;;;;;;4995436;28;19920;-85
2022/09/04 09:45:26;;;;;;;;;;;24.00;99.90;;;;;;5021251;28;20290;-81
2022/09/04 09:48:00;;;;;;;;;;;24.20;99.90;;;;;;5008555;28;19944;-80
2022/09/04 09:50:44;;;;;;;;;;;24.30;99.90;;;;;;5011462;28;19940;-82
2022/09/04 09:53:25;;;;;;;;;;;24.30;99.90;;;;;;5003240;28;19916;-83
2022/09/04 09:56:09;;;;;;;;;;;24.50;99.90;;;;;;4995912;28;19909;-81
2022/09/04 09:58:50;;;;;;;;;;;24.50;99.90;;;;;;5008935;28;19971;-83
2022/09/04 10:01:24;;;;;;;;;;;24.60;99.90;;;;;;4993952;28;19917;-81
2022/09/04 10:04:10;;;;;;;;;;;24.70;99.90;;;;;;5000024;28;19914;-82
2022/09/04 10:07:05;;;;;;;;;;;24.90;99.90;;;;;;4992786;28;19914;-80
2022/09/04 10:09:31;;;;;;;;;;;24.90;99.90;;;;;;5010614;28;19912;-81
2022/09/04 10:12:07;;;;;;;;;;;24.90;99.90;;;;;;5022258;28;19909;-79
2022/09/04 10:14:48;;;;;;;;;;;24.80;99.90;;;;;;5014663;28;19967;-81
2022/09/04 10:17:32;;;;;;;;;;;24.80;99.90;;;;;;5009712;28;20249;-80
2022/09/04 10:20:16;;;;;;;;;;;24.80;99.90;;;;;;4996072;28;19913;-81
2022/09/04 10:23:02;;;;;;;;;;;24.70;99.90;;;;;;5015548;28;19913;-80
2022/09/04 10:25:31;;;;;;;;;;;25.10;99.40;;;;;;4994904;28;19976;-80
2022/09/04 10:28:00;;;;;;;;;;;25.10;99.40;;;;;;4999309;28;20331;-83
2022/09/04 10:30:40;;;;;;;;;;;25.40;99.10;;;;;;5003197;28;19983;-79
2022/09/04 10:33:25;;;;;;;;;;;25.50;97.90;;;;;;5020845;28;19913;-81
2022/09/04 10:36:03;;;;;;;;;;;25.00;98.00;;;;;;5017131;28;19948;-80
2022/09/04 10:40:34;;;;;;;;;;;24.70;98.80;;;;;;5001044;28;19985;-81
2022/09/04 10:41:35;;;;;;;;;;;24.40;99.20;;;;;;4996810;28;20027;-80
2022/09/04 10:44:03;;;;;;;;;;;24.40;99.80;;;;;;5001328;28;19913;-79
2022/09/04 10:46:32;;;;;;;;;;;24.40;98.80;;;;;;4995547;28;20434;-79
2022/09/04 10:49:16;;;;;;;;;;;24.50;99.00;;;;;;4999882;28;19964;-79
2022/09/04 10:51:51;;;;;;;;;;;24.90;98.10;;;;;;4995276;28;19949;-82
2022/09/04 10:54:35;;;;;;;;;;;25.10;95.30;;;;;;4999150;28;19951;-80
2022/09/04 10:57:20;;;;;;;;;;;25.30;94.20;;;;;;4999346;28;19909;-79
2022/09/04 11:00:00;;;;;;;;;;;25.30;94.40;;;;;;4998959;28;19952;-80
2022/09/04 11:02:46;;;;;;;;;;;26.00;93.90;;;;;;5012183;28;19924;-80
2022/09/04 11:05:31;;;;;;;;;;;26.00;92.70;;;;;;4998531;28;19914;-80
2022/09/04 11:08:19;;;;;;;;;;;26.00;90.90;;;;;;4996061;28;20000;-82
2022/09/04 11:11:04;;;;;;;;;;;26.00;91.10;;;;;;4988630;28;19968;-82
2022/09/04 11:13:36;;;;;;;;;;;26.30;90.70;;;;;;4996979;28;19937;-78
2022/09/04 11:16:02;;;;;;;;;;;26.40;90.20;;;;;;5000391;28;20338;-80
2022/09/04 11:18:27;;;;;;;;;;;26.70;90.60;;;;;;5003083;28;19949;-81
2022/09/04 11:20:53;;;;;;;;;;;26.70;91.40;;;;;;4999652;28;19917;-81
2022/09/04 11:23:18;;;;;;;;;;;26.70;91.10;;;;;;5000631;28;19909;-80
2022/09/04 11:26:04;;;;;;;;;;;27.00;90.50;;;;;;5015553;28;19909;-83
2022/09/04 11:28:50;;;;;;;;;;;27.00;83.40;;;;;;4994342;28;19913;-82
2022/09/04 11:31:34;;;;;;;;;;;26.90;82.90;;;;;;5000372;28;19975;-82
2022/09/04 11:34:20;;;;;;;;;;;26.90;83.00;;;;;;5024022;28;19917;-83
2022/09/04 11:37:04;;;;;;;;;;;26.90;80.90;;;;;;5005876;28;19919;-83
2022/09/04 11:39:29;;;;;;;;;;;26.80;81.00;;;;;;5006116;28;19986;-83
2022/09/04 11:42:19;;;;;;;;;;;26.80;80.90;;;;;;5004800;28;19917;-82
2022/09/04 11:45:03;;;;;;;;;;;26.70;80.80;;;;;;5008146;28;19963;-83
2022/09/04 11:47:47;;;;;;;;;;;26.50;79.90;;;;;;5006068;28;19956;-81
2022/09/04 11:50:16;;;;;;;;;;;26.40;80.90;;;;;;5001633;28;19909;-81
2022/09/04 11:53:10;;;;;;;;;;;26.00;81.80;;;;;;5003816;28;19958;-81
2022/09/04 11:55:38;;;;;;;;;;;25.80;83.60;;;;;;5009535;28;19922;-80
2022/09/04 11:58:09;;;;;;;;;;;25.70;78.70;;;;;;4997045;28;19917;-81
2022/09/04 12:00:57;;;;;;;;;;;25.60;78.50;;;;;;5019038;28;19944;-81
2022/09/04 12:03:40;;;;;;;;;;;25.40;79.60;;;;;;5002785;28;19937;-79
2022/09/04 12:06:18;;;;;;;;;;;25.60;75.80;;;;;;5002022;28;19910;-81
2022/09/04 12:08:43;;;;;;;;;;;25.90;75.30;;;;;;5002809;28;19913;-81
2022/09/04 12:11:30;;;;;;;;;;;26.30;73.90;;;;;;5022420;28;19911;-82
2022/09/04 12:13:56;;;;;;;;;;;26.60;74.30;;;;;;5018516;28;19924;-80
2022/09/04 12:16:43;;;;;;;;;;;26.90;75.20;;;;;;5004118;28;19917;-81
2022/09/04 12:19:21;;;;;;;;;;;27.20;75.90;;;;;;5018161;28;19913;-79
2022/09/04 12:21:51;;;;;;;;;;;27.30;74.50;;;;;;5006277;28;19910;-80
2022/09/04 12:24:35;;;;;;;;;;;27.50;73.50;;;;;;5000794;28;19961;-81
2022/09/04 12:27:19;;;;;;;;;;;27.40;73.50;;;;;;5025433;28;19921;-82
2022/09/04 12:29:45;;;;;;;;;;;27.10;73.60;;;;;;5011458;28;20390;-81
2022/09/04 12:32:13;;;;;;;;;;;27.00;73.90;;;;;;5007508;28;19909;-82
2022/09/04 12:34:58;;;;;;;;;;;26.50;75.00;;;;;;5004155;28;19914;-81
2022/09/04 12:37:42;;;;;;;;;;;26.60;74.60;;;;;;5018524;28;19932;-81
2022/09/04 12:40:28;;;;;;;;;;;26.50;74.10;;;;;;4997973;28;19917;-79
2022/09/04 12:42:56;;;;;;;;;;;26.50;75.60;;;;;;5003450;28;19905;-79
2022/09/04 12:45:44;;;;;;;;;;;26.30;73.90;;;;;;4999823;28;19959;-83
2022/09/04 12:48:22;;;;;;;;;;;26.30;73.70;;;;;;5003218;28;19952;-82
2022/09/04 12:50:56;;;;;;;;;;;26.10;74.60;;;;;;5012787;28;19917;-80
2022/09/04 12:53:35;;;;;;;;;;;25.90;75.80;;;;;;5014216;28;20347;-81
2022/09/04 12:56:02;;;;;;;;;;;25.60;74.60;;;;;;5015438;28;19921;-80
2022/09/04 12:58:32;;;;;;;;;;;25.60;76.80;;;;;;5000464;28;19920;-81
2022/09/04 13:01:01;;;;;;;;;;;25.60;77.50;;;;;;5000250;28;20478;-81
2022/09/04 13:03:30;;;;;;;;;;;25.70;78.00;;;;;;4996316;28;20413;-80
2022/09/04 13:06:05;;;;;;;;;;;25.90;78.30;;;;;;4999892;28;20213;-80
2022/09/04 13:08:37;;;;;;;;;;;26.30;78.90;;;;;;5018259;28;19968;-80
2022/09/04 13:11:28;;;;;;;;;;;26.30;78.90;;;;;;4997412;28;20391;-80
2022/09/04 13:14:00;;;;;;;;;;;27.00;74.50;;;;;;5001564;28;20038;-81
2022/09/04 13:16:45;;;;;;;;;;;27.20;73.40;;;;;;5018574;28;19935;-82
2022/09/04 13:19:11;;;;;;;;;;;27.30;74.10;;;;;;4985544;28;20082;-82
2022/09/04 13:21:55;;;;;;;;;;;27.50;71.50;;;;;;5022239;28;19910;-81
2022/09/04 13:24:31;;;;;;;;;;;27.60;70.90;;;;;;5000000;28;19905;-80
2022/09/04 13:27:14;;;;;;;;;;;27.70;71.30;;;;;;5004111;28;19917;-82
2022/09/04 13:29:49;;;;;;;;;;;27.80;71.90;;;;;;4997921;28;19960;-80
2022/09/04 13:32:17;;;;;;;;;;;27.80;72.40;;;;;;4997232;28;19937;-81
2022/09/04 13:35:02;;;;;;;;;;;27.90;69.80;;;;;;5018860;28;19948;-82
2022/09/04 13:37:35;;;;;;;;;;;27.90;71.10;;;;;;5003641;28;19916;-83
2022/09/04 13:40:00;;;;;;;;;;;27.90;70.70;;;;;;5014197;28;19906;-80
2022/09/04 13:42:49;;;;;;;;;;;28.00;71.40;;;;;;5010473;28;19971;-79
2022/09/04 13:45:18;;;;;;;;;;;;;;;;;;5001359;28;19924;-81
2022/09/04 13:47:53;;;;;;;;;;;28.00;71.00;;;;;;4998784;28;19973;-82
2022/09/04 13:50:18;;;;;;;;;;;28.00;71.20;;;;;;5011850;28;19909;-81
2022/09/04 13:52:46;;;;;;;;;;;27.90;70.40;;;;;;5003558;28;19936;-83
2022/09/04 13:55:47;;;;;;;;;;;28.00;71.30;;;;;;5002823;28;19913;-82
2022/09/04 13:58:18;;;;;;;;;;;28.20;70.20;;;;;;4953736;28;19898;-81
2022/09/04 14:00:48;;;;;;;;;;;28.20;69.70;;;;;;5025363;28;19964;-83
2022/09/04 14:03:21;;;;;;;;;;;28.00;70.10;;;;;;5035992;28;19893;-82
2022/09/04 14:05:46;;;;;;;;;;;28.10;68.10;;;;;;4997734;28;19918;-82
2022/09/04 14:08:13;;;;;;;;;;;28.10;68.10;;;;;;5000014;28;19996;-81
2022/09/04 14:11:01;;;;;;;;;;;28.20;67.50;;;;;;5003890;28;19931;-82
2022/09/04 14:13:36;;;;;;;;;;;28.20;68.20;;;;;;5014797;28;19917;-82
2022/09/04 14:16:07;;;;;;;;;;;28.20;67.50;;;;;;5021486;28;20478;-83
2022/09/04 14:18:36;;;;;;;;;;;28.20;67.80;;;;;;5026815;28;19918;-81
2022/09/04 14:21:23;;;;;;;;;;;28.30;67.30;;;;;;5019167;28;19913;-82
2022/09/04 14:23:48;;;;;;;;;;;28.40;66.70;;;;;;5019072;28;19936;-82
2022/09/04 14:26:45;;;;;;;;;;;;;;;;;;;;;
2022/09/04 14:29:30;;;;;;;;;;;28.40;66.60;;;;;;5016077;28;20024;-81
2022/09/04 14:32:01;;;;;;;;;;;28.40;66.80;;;;;;5018645;28;20296;-79
2022/09/04 14:34:36;;;;;;;;;;;28.50;66.70;;;;;;5007205;28;20011;-82
2022/09/04 14:37:03;;;;;;;;;;;28.40;66.10;;;;;;5022226;28;19920;-81
2022/09/04 14:39:44;;;;;;;;;;;28.30;67.00;;;;;;5022651;28;19992;-80
2022/09/04 14:42:15;;;;;;;;;;;28.30;66.60;;;;;;5013965;28;20036;-80
2022/09/04 14:44:59;;;;;;;;;;;28.40;67.00;;;;;;5020829;28;19914;-81
2022/09/04 14:47:34;;;;;;;;;;;28.40;66.30;;;;;;5019881;28;19905;-81
2022/09/04 14:50:00;;;;;;;;;;;28.40;66.80;;;;;;5018695;28;20352;-80
2022/09/04 14:55:31;;;;;;;;;;;28.30;67.50;;;;;;5007864;28;20396;-80
2022/09/04 14:58:00;;;;;;;;;;;28.40;67.40;;;;;;5015678;28;19905;-80
2022/09/04 15:00:28;;;;;;;;;;;28.40;66.50;;;;;;5015989;28;20000;-81
2022/09/04 15:03:13;;;;;;;;;;;28.30;66.30;;;;;;5017685;28;19912;-81
2022/09/04 15:05:50;;;;;;;;;;;28.30;65.80;;;;;;5020180;28;19940;-81
2022/09/04 15:08:30;;;;;;;;;;;28.20;66.10;;;;;;5000717;28;19913;-81
2022/09/04 15:11:04;;;;;;;;;;;28.10;66.80;;;;;;5009481;28;20402;-81
2022/09/04 15:13:33;;;;;;;;;;;28.10;67.10;;;;;;5017142;28;19909;-80
2022/09/04 15:16:05;;;;;;;;;;;28.20;66.50;;;;;;5001384;28;19945;-81
2022/09/04 15:18:42;;;;;;;;;;;28.20;66.90;;;;;;5022829;28;19913;-80
2022/09/04 15:21:19;;;;;;;;;;;28.20;67.50;;;;;;5021288;28;19944;-80
2022/09/04 15:23:45;;;;;;;;;;;28.10;66.90;;;;;;4998647;28;19967;-82